Time;durP1;ratioP1;P1;durP2;ratioP2;P2;SDS_P1;SDS_P2;PMS_P1;PMS_P2;Temp;Humidity;BMP_temperature;BMP_pressure;BME280_temperature;BME280_humidity;BME280_pressure;Samples;Min_cycle;Max_cycle;Signal;HPM_P1;HPM_P2
2021/05/27 00:00:10;;;;;;;5.07;3.42;;;;;;;9.98;84.59;100815.44;5048741;28;20029;-76
2021/05/27 00:02:35;;;;;;;5.07;3.55;;;;;;;9.93;84.50;100821.84;5068696;28;20049;-79
2021/05/27 00:05:01;;;;;;;6.05;3.55;;;;;;;9.92;84.37;100820.19;5028815;28;20036;-79
2021/05/27 00:07:26;;;;;;;5.43;3.50;;;;;;;9.85;84.51;100819.66;5049856;28;20025;-79
2021/05/27 00:09:52;;;;;;;7.53;3.35;;;;;;;9.82;84.32;100820.22;5043259;28;20108;-79
2021/05/27 00:12:17;;;;;;;3.55;2.72;;;;;;;9.77;84.57;100817.44;5069277;28;20037;-79
2021/05/27 00:14:43;;;;;;;5.32;2.90;;;;;;;9.75;84.53;100816.88;5046452;28;20037;-79
2021/05/27 00:17:08;;;;;;;5.10;3.17;;;;;;;9.69;84.68;100818.00;5028770;28;20025;-79
2021/05/27 00:19:34;;;;;;;4.32;2.90;;;;;;;9.63;84.47;100817.19;5054879;28;20033;-79
2021/05/27 00:21:59;;;;;;;4.45;2.80;;;;;;;9.65;84.27;100811.38;5055739;28;20413;-79
2021/05/27 00:24:25;;;;;;;5.40;2.90;;;;;;;9.56;84.85;100817.50;5037689;28;20041;-79
2021/05/27 00:26:51;;;;;;;4.60;2.80;;;;;;;9.53;84.58;100811.69;5051240;28;20044;-79
2021/05/27 00:29:16;;;;;;;3.80;2.72;;;;;;;9.50;84.33;100813.06;5021980;28;20044;-79
2021/05/27 00:31:41;;;;;;;6.53;2.70;;;;;;;9.42;84.50;100816.41;5036242;28;20032;-76
2021/05/27 00:34:07;;;;;;;4.13;2.92;;;;;;;9.42;84.60;100815.56;5053723;28;20025;-77
2021/05/27 00:36:33;;;;;;;4.18;2.72;;;;;;;9.39;84.70;100819.75;5061379;28;20032;-77
2021/05/27 00:38:58;;;;;;;3.25;2.50;;;;;;;9.39;84.73;100822.50;5050652;28;20075;-77
2021/05/27 00:41:24;;;;;;;4.25;2.60;;;;;;;9.33;84.99;100826.38;5034539;28;20152;-77
2021/05/27 00:43:49;;;;;;;5.28;2.40;;;;;;;9.30;84.75;100832.47;5036749;28;20041;-77
2021/05/27 00:46:15;;;;;;;5.07;2.78;;;;;;;9.31;84.51;100825.84;5035785;28;20025;-77
2021/05/27 00:51:28;;;;;;;3.28;2.28;;;;;;;9.24;84.49;100837.19;5038451;28;20033;-77
2021/05/27 00:53:53;;;;;;;4.20;2.45;;;;;;;9.20;84.47;100830.56;5035859;28;20021;-77
2021/05/27 00:56:20;;;;;;;4.30;2.10;;;;;;;9.15;84.72;100841.63;5023672;28;20055;-77
2021/05/27 00:58:45;;;;;;;3.92;2.40;;;;;;;9.14;84.74;100843.56;5030405;28;20025;-77
2021/05/27 01:01:11;;;;;;;3.10;2.22;;;;;;;9.12;84.66;100839.41;5008486;28;20092;-78
2021/05/27 01:03:36;;;;;;;3.22;2.13;;;;;;;9.11;84.76;100834.97;5020943;28;20037;-77
2021/05/27 01:06:02;;;;;;;3.55;2.17;;;;;;;9.05;84.59;100839.66;5053999;28;20053;-77
2021/05/27 01:08:29;;;;;;;3.95;2.00;;;;;;;9.03;84.86;100836.38;5065767;28;20025;-78
2021/05/27 01:10:54;;;;;;;5.93;2.58;;;;;;;9.03;84.93;100836.38;5021502;28;20054;-77
2021/05/27 01:13:21;;;;;;;4.63;2.20;;;;;;;8.99;84.78;100838.00;5021637;28;20040;-77
2021/05/27 01:15:47;;;;;;;2.83;2.10;;;;;;;8.96;84.99;100841.34;5037399;28;20103;-78
2021/05/27 01:18:14;;;;;;;3.90;2.40;;;;;;;8.96;84.84;100835.78;5022469;28;20032;-78
2021/05/27 01:20:44;;;;;;;4.70;2.67;;;;;;;8.94;84.82;100832.47;5026121;28;20033;-76
2021/05/27 01:23:10;;;;;;;4.35;2.17;;;;;;;8.91;84.66;100833.00;5053879;28;20053;-77
2021/05/27 01:25:37;;;;;;;4.53;2.40;;;;;;;8.89;84.92;100829.72;5069489;28;20074;-77
2021/05/27 01:28:02;;;;;;;3.22;1.95;;;;;;;8.89;84.80;100832.47;5008936;28;20061;-77
2021/05/27 02:00:45;;;;;;;6.25;2.60;;;;;;;8.92;86.19;100818.91;4740768;28;20046;-77
2021/05/27 02:03:11;;;;;;;2.85;1.88;;;;;;;8.95;85.93;100823.06;3487632;28;22303;-78
2021/05/27 02:05:37;;;;;;;4.10;2.38;;;;;;;8.98;86.11;100822.50;3446630;28;21966;-77
2021/05/27 02:08:03;;;;;;;4.75;2.25;;;;;;;9.00;86.10;100819.44;3478897;28;22926;-77
2021/05/27 02:10:28;;;;;;;3.67;2.20;;;;;;;9.01;85.60;100827.50;3470369;28;22121;-77
2021/05/27 02:12:54;;;;;;;4.57;2.22;;;;;;;9.06;85.83;100833.03;4894170;28;20053;-77
2021/05/27 02:15:19;;;;;;;4.18;2.40;;;;;;;9.08;86.00;100828.06;5046651;28;20029;-76
2021/05/27 02:17:45;;;;;;;3.08;2.20;;;;;;;9.12;85.86;100829.16;5038723;28;20472;-77
2021/05/27 02:20:11;;;;;;;6.35;2.50;;;;;;;9.12;85.88;100828.34;5049431;28;20032;-77
2021/05/27 02:22:36;;;;;;;3.08;2.33;;;;;;;9.11;85.66;100838.59;5018188;28;20040;-77
2021/05/27 02:25:03;;;;;;;4.00;2.30;;;;;;;9.15;85.74;100833.31;5067562;28;20033;-77
2021/05/27 02:27:29;;;;;;;3.25;2.08;;;;;;;9.16;85.65;100834.97;5049201;28;20389;-77
2021/05/27 02:29:54;;;;;;;3.60;2.67;;;;;;;9.18;86.24;100833.59;5040196;28;20033;-76
2021/05/27 02:32:20;;;;;;;3.70;2.20;;;;;;;9.18;86.21;100835.53;5031352;28;20026;-77
2021/05/27 02:34:46;;;;;;;3.40;2.63;;;;;;;9.20;85.92;100829.72;5038356;28;20036;-77
2021/05/27 02:37:11;;;;;;;2.75;2.00;;;;;;;9.22;86.02;100830.25;5027408;28;20029;-77
2021/05/27 02:39:37;;;;;;;3.33;2.20;;;;;;;9.18;85.70;100827.22;5066332;28;20044;-77
2021/05/27 02:42:02;;;;;;;4.45;2.40;;;;;;;9.23;85.92;100823.63;5035722;28;20404;-77
2021/05/27 02:44:28;;;;;;;2.95;2.30;;;;;;;9.23;85.55;100818.09;5036590;28;20036;-77
2021/05/27 02:46:53;;;;;;;4.40;2.65;;;;;;;9.26;86.05;100826.66;5010976;28;20434;-76
2021/05/27 02:49:19;;;;;;;7.43;2.55;;;;;;;9.28;86.03;100834.72;5035343;28;20041;-77
2021/05/27 02:51:44;;;;;;;5.28;2.42;;;;;;;9.28;85.87;100830.00;5031921;28;20021;-77
2021/05/27 02:54:10;;;;;;;4.53;2.22;;;;;;;9.27;86.01;100838.56;5068003;28;20098;-77
2021/05/27 02:56:36;;;;;;;2.97;2.30;;;;;;;9.29;85.88;100833.59;5019845;28;20048;-76
2021/05/27 02:59:01;;;;;;;4.32;2.13;;;;;;;9.32;85.88;100827.50;5034670;28;20044;-77
2021/05/27 03:01:27;;;;;;;4.05;2.20;;;;;;;9.32;86.01;100833.03;5034419;28;20126;-76
2021/05/27 03:03:52;;;;;;;4.18;2.10;;;;;;;9.33;85.95;100834.69;5027891;28;20029;-77
2021/05/27 03:06:18;;;;;;;5.60;2.88;;;;;;;9.34;85.93;100830.84;5041903;28;20036;-76
2021/05/27 03:08:43;;;;;;;4.38;2.05;;;;;;;9.33;85.91;100829.16;5041840;28;20038;-77
2021/05/27 03:11:09;;;;;;;3.58;2.10;;;;;;;9.38;85.69;100835.53;5034172;28;20049;-77
2021/05/27 03:13:35;;;;;;;3.67;2.28;;;;;;;9.35;85.86;100825.00;5039204;28;20105;-77
2021/05/27 03:16:01;;;;;;;3.63;2.55;;;;;;;9.34;85.75;100828.88;5037300;28;20068;-77
2021/05/27 03:18:27;;;;;;;3.97;2.08;;;;;;;9.33;86.08;100834.69;5063512;28;20025;-77
2021/05/27 03:20:53;;;;;;;2.65;1.95;;;;;;;9.36;86.06;100829.44;5036116;28;20047;-77
2021/05/27 03:23:18;;;;;;;3.10;2.03;;;;;;;9.37;85.78;100830.28;5028789;28;20034;-77
2021/05/27 03:25:44;;;;;;;3.15;2.22;;;;;;;9.37;85.75;100831.09;5041937;28;20029;-77
2021/05/27 03:28:09;;;;;;;3.17;1.92;;;;;;;9.37;85.96;100828.31;5036738;28;20041;-77
2021/05/27 03:30:35;;;;;;;2.42;2.00;;;;;;;9.39;86.08;100825.28;5051697;28;20448;-77
2021/05/27 03:33:00;;;;;;;4.45;2.20;;;;;;;9.37;85.66;100825.56;5024726;28;20029;-77
2021/05/27 03:35:26;;;;;;;3.13;2.03;;;;;;;9.39;86.02;100826.13;5042508;28;20041;-77
2021/05/27 03:37:51;;;;;;;2.85;1.73;;;;;;;9.42;86.10;100833.03;5048958;28;20037;-77
2021/05/27 03:40:17;;;;;;;4.35;2.28;;;;;;;9.42;85.87;100816.41;5019151;28;20041;-77
2021/05/27 03:42:43;;;;;;;3.00;2.15;;;;;;;9.43;85.98;100825.56;5037854;28;20101;-77
2021/05/27 03:45:11;;;;;;;3.67;2.40;;;;;;;9.42;85.81;100815.56;5055498;28;20436;-77
2021/05/27 03:47:37;;;;;;;2.85;1.90;;;;;;;9.44;85.89;100813.34;5056892;28;20608;-76
2021/05/27 03:50:05;;;;;;;2.40;1.70;;;;;;;9.45;85.53;100815.84;5052890;28;20026;-77
2021/05/27 03:52:31;;;;;;;2.88;2.10;;;;;;;9.43;85.74;100806.97;5042333;28;20067;-77
2021/05/27 03:54:56;;;;;;;2.65;1.98;;;;;;;9.44;85.62;100814.16;5072727;28;20029;-76
2021/05/27 03:57:22;;;;;;;3.83;2.08;;;;;;;9.44;85.65;100808.63;5035637;28;20025;-77
2021/05/27 04:02:31;;;;;;;2.30;1.90;;;;;;;9.44;85.89;100818.88;5038818;28;20045;-77
2021/05/27 04:07:41;;;;;;;3.13;2.25;;;;;;;9.37;85.83;100813.63;5038629;28;20029;-76
2021/05/27 04:10:09;;;;;;;2.83;2.08;;;;;;;9.40;85.38;100818.63;5053598;28;20082;-77
2021/05/27 04:12:45;;;;;;;2.28;1.90;;;;;;;9.39;85.71;100815.03;5043854;28;20446;-76
2021/05/27 04:15:21;;;;;;;3.15;1.67;;;;;;;9.40;85.67;100807.53;5040970;28;20036;-77
2021/05/27 04:18:01;;;;;;;9.52;2.53;;;;;;;9.37;85.73;100817.25;5047344;28;20032;-77
2021/05/27 04:20:31;;;;;;;2.13;1.73;;;;;;;9.37;85.90;100813.63;5059130;28;20037;-77
2021/05/27 04:22:56;;;;;;;3.65;2.10;;;;;;;9.40;85.48;100802.81;5040511;28;20048;-77
2021/05/27 04:25:23;;;;;;;3.60;2.00;;;;;;;9.35;85.68;100805.59;5032289;28;20033;-78
2021/05/27 04:27:49;;;;;;;3.03;2.10;;;;;;;9.39;85.87;100819.75;5038919;28;20029;-77
2021/05/27 04:30:16;;;;;;;2.35;2.03;;;;;;;9.39;85.89;100811.44;5059907;28;20028;-77
2021/05/27 04:33:12;;;;;;;4.15;2.40;;;;;;;9.40;86.09;100813.06;5033765;28;20032;-77
2021/05/27 04:35:38;;;;;;;3.75;2.42;;;;;;;9.43;86.26;100812.50;5042537;28;20037;-77
2021/05/27 04:38:08;;;;;;;5.68;1.92;;;;;;;9.43;86.28;100812.50;5006807;28;20079;-77
2021/05/27 04:40:34;;;;;;;4.15;1.77;;;;;;;9.45;85.54;100826.94;5038543;28;20028;-76
2021/05/27 04:43:00;;;;;;;2.53;1.85;;;;;;;9.47;85.66;100829.41;5043740;28;20115;-77
2021/05/27 04:45:25;;;;;;;5.93;2.58;;;;;;;9.46;86.15;100820.28;5069939;28;20036;-77
2021/05/27 04:47:51;;;;;;;2.72;1.98;;;;;;;9.44;85.88;100836.34;5052228;28;20107;-77
2021/05/27 04:50:17;;;;;;;4.20;2.45;;;;;;;9.46;85.53;100836.91;5020769;28;20116;-77
2021/05/27 04:52:43;;;;;;;4.05;2.50;;;;;;;9.47;86.15;100841.38;5051570;28;20405;-77
2021/05/27 04:55:10;;;;;;;3.67;2.03;;;;;;;9.48;85.31;100847.72;5028921;28;20025;-76
2021/05/27 04:57:36;;;;;;;3.08;1.90;;;;;;;9.52;86.07;100849.66;5024934;28;20041;-76
2021/05/27 05:00:03;;;;;;;3.13;1.95;;;;;;;9.59;86.41;100844.66;5031501;28;20086;-76
2021/05/27 05:02:28;;;;;;;2.80;1.90;;;;;;;9.65;86.62;100839.13;5019680;28;20029;-76
2021/05/27 05:04:54;;;;;;;6.18;2.53;;;;;;;9.64;86.89;100841.06;5048056;28;20055;-76
2021/05/27 05:07:19;;;;;;;3.17;2.53;;;;;;;9.72;87.22;100843.28;5037090;28;20032;-76
2021/05/27 05:09:45;;;;;;;3.78;2.75;;;;;;;9.75;87.16;100841.84;5061851;28;20033;-76
2021/05/27 05:12:11;;;;;;;5.05;2.65;;;;;;;9.79;86.98;100848.50;5053854;28;20044;-76
2021/05/27 05:14:36;;;;;;;5.43;2.83;;;;;;;9.82;87.31;100854.31;5055939;28;20071;-76
2021/05/27 05:17:02;;;;;;;6.32;3.20;;;;;;;9.82;87.10;100853.50;5061500;28;20501;-75
2021/05/27 05:19:27;;;;;;;6.22;3.20;;;;;;;9.87;87.02;100859.03;5049659;28;20036;-76
2021/05/27 05:21:53;;;;;;;4.10;3.22;;;;;;;9.92;87.31;100861.81;5040486;28;20182;-76
2021/05/27 05:24:18;;;;;;;6.20;3.20;;;;;;;9.96;87.71;100857.34;5025591;28;20030;-77
2021/05/27 05:26:44;;;;;;;7.72;3.42;;;;;;;9.97;87.57;100866.50;5059678;28;20025;-76
2021/05/27 05:29:10;;;;;;;7.30;3.63;;;;;;;10.00;87.19;100864.00;5051773;28;20090;-75
2021/05/27 05:31:35;;;;;;;7.70;3.72;;;;;;;10.04;87.40;100872.59;5082288;28;20028;-76
2021/05/27 05:34:01;;;;;;;5.25;3.20;;;;;;;10.06;87.28;100876.75;5074755;28;20424;-76
2021/05/27 05:36:26;;;;;;;4.82;3.50;;;;;;;10.11;87.17;100880.59;5064382;28;20029;-76
2021/05/27 05:38:52;;;;;;;7.95;3.40;;;;;;;10.15;86.88;100878.94;5063268;28;20028;-76
2021/05/27 05:41:18;;;;;;;4.35;3.40;;;;;;;10.20;86.90;100876.16;5047166;28;20045;-76
2021/05/27 05:43:44;;;;;;;4.63;3.45;;;;;;;10.22;86.70;100874.75;5060458;28;20029;-76
2021/05/27 05:46:10;;;;;;;9.60;3.83;;;;;;;10.26;87.00;100875.84;5061677;28;20040;-76
2021/05/27 05:48:35;;;;;;;6.28;3.45;;;;;;;10.32;87.21;100873.91;5057739;28;20040;-76
2021/05/27 05:51:05;;;;;;;5.55;3.75;;;;;;;10.40;87.24;100878.88;5061838;28;20388;-75
2021/05/27 05:53:30;;;;;;;6.78;3.75;;;;;;;10.47;86.89;100865.53;5042500;28;20028;-76
2021/05/27 05:55:56;;;;;;;8.10;3.90;;;;;;;10.56;86.80;100870.47;5082687;28;20036;-76
2021/05/27 05:58:23;;;;;;;6.90;3.92;;;;;;;10.63;86.93;100868.22;5062421;28;20107;-76
2021/05/27 06:00:51;;;;;;;6.38;3.78;;;;;;;10.71;86.56;100875.97;5058044;28;20032;-76
2021/05/27 06:03:16;;;;;;;6.18;3.83;;;;;;;10.79;86.28;100872.59;5076896;28;20029;-76
2021/05/27 06:05:42;;;;;;;5.65;3.97;;;;;;;10.85;86.21;100871.44;5071110;28;20040;-76
2021/05/27 06:08:07;;;;;;;6.13;3.60;;;;;;;10.91;85.98;100873.06;5082811;28;20039;-76
2021/05/27 06:10:33;;;;;;;8.68;4.38;;;;;;;10.99;85.87;100871.63;5060492;28;20036;-75
2021/05/27 06:12:58;;;;;;;6.65;3.80;;;;;;;11.08;85.65;100885.72;5059990;28;20049;-76
2021/05/27 06:15:25;;;;;;;7.45;4.10;;;;;;;11.14;85.31;100876.22;5068068;28;20385;-75
2021/05/27 06:17:51;;;;;;;7.18;4.05;;;;;;;11.22;85.26;100883.97;5082923;28;20021;-76
2021/05/27 06:20:18;;;;;;;5.32;3.75;;;;;;;11.29;84.87;100887.25;5070952;28;20403;-76
2021/05/27 06:22:44;;;;;;;6.65;3.65;;;;;;;11.37;84.88;100886.63;5046275;28;20033;-77
2021/05/27 06:25:10;;;;;;;6.75;3.97;;;;;;;11.44;84.62;100888.25;5069139;28;20117;-78
2021/05/27 06:27:35;;;;;;;7.97;3.92;;;;;;;11.53;84.80;100884.56;5042641;28;20099;-74
2021/05/27 06:30:01;;;;;;;7.57;3.80;;;;;;;11.61;84.15;100892.25;5083454;28;20020;-75
2021/05/27 06:32:26;;;;;;;5.65;3.33;;;;;;;11.71;83.80;100894.13;5046309;28;20063;-74
2021/05/27 06:34:52;;;;;;;10.60;3.70;;;;;;;11.80;84.08;100886.81;5081550;28;20059;-75
2021/05/27 06:37:19;;;;;;;5.72;3.45;;;;;;;11.88;83.32;100904.03;5066034;28;20020;-72
2021/05/27 06:39:44;;;;;;;6.95;3.83;;;;;;;11.96;83.52;100901.44;5057011;28;20033;-72
2021/05/27 06:42:10;;;;;;;6.40;3.05;;;;;;;12.03;83.20;100906.66;5084863;28;20094;-72
2021/05/27 06:44:35;;;;;;;5.38;3.00;;;;;;;12.12;82.82;100910.47;5092530;28;20027;-72
2021/05/27 06:47:01;;;;;;;5.85;2.72;;;;;;;12.19;82.07;100905.38;5038230;28;20037;-72
2021/05/27 06:49:26;;;;;;;7.00;3.00;;;;;;;12.25;81.86;100901.38;5059379;28;20388;-72
2021/05/27 06:51:55;;;;;;;7.22;3.70;;;;;;;12.36;82.84;100904.06;5008167;28;20028;-72
2021/05/27 06:54:21;;;;;;;7.65;3.22;;;;;;;12.43;82.58;100896.19;5083505;28;20035;-72
2021/05/27 06:56:46;;;;;;;6.88;3.10;;;;;;;12.47;82.15;100900.84;5062093;28;20020;-72
2021/05/27 06:59:12;;;;;;;6.63;2.97;;;;;;;12.60;81.70;100904.88;5029227;28;20041;-72
2021/05/27 07:01:37;;;;;;;9.45;2.88;;;;;;;12.68;81.57;100903.41;5034129;28;20016;-72
2021/05/27 07:04:03;;;;;;;8.82;3.42;;;;;;;12.77;82.28;100909.13;5030038;28;20086;-72
2021/05/27 07:06:28;;;;;;;5.25;2.55;;;;;;;12.84;81.42;100904.88;5026775;28;20381;-73
2021/05/27 07:08:54;;;;;;;3.28;2.38;;;;;;;12.91;81.12;100916.44;5080816;28;20035;-72
2021/05/27 07:11:21;;;;;;;5.68;2.88;;;;;;;13.01;80.90;100909.06;5067754;28;20074;-72
2021/05/27 07:13:46;;;;;;;4.40;2.47;;;;;;;13.07;80.90;100907.88;5018630;28;20047;-72
2021/05/27 07:16:12;;;;;;;7.03;2.92;;;;;;;13.19;81.16;100903.50;5040671;28;20032;-73
2021/05/27 07:18:38;;;;;;;6.97;2.88;;;;;;;13.33;81.10;100911.13;5060109;28;20028;-73
2021/05/27 07:21:04;;;;;;;6.22;2.83;;;;;;;13.43;80.92;100907.34;5086153;28;20377;-73
2021/05/27 07:23:31;;;;;;;5.60;2.60;;;;;;;13.52;79.94;100917.53;5046453;28;20017;-72
2021/05/27 07:25:56;;;;;;;7.55;2.85;;;;;;;13.63;79.07;100920.97;5037063;28;20033;-73
2021/05/27 07:28:22;;;;;;;5.05;2.60;;;;;;;13.72;77.94;100919.16;5031811;28;20400;-73
2021/05/27 07:30:48;;;;;;;8.95;2.30;;;;;;;13.84;77.79;100915.88;5056397;28;20028;-72
2021/05/27 07:33:13;;;;;;;5.78;2.38;;;;;;;13.96;77.37;100919.00;5022760;28;20029;-73
2021/05/27 07:35:39;;;;;;;3.65;2.10;;;;;;;14.08;77.12;100919.34;5047536;28;20039;-72
2021/05/27 07:38:05;;;;;;;4.03;1.92;;;;;;;14.23;76.61;100920.19;5054266;28;20032;-72
2021/05/27 07:40:32;;;;;;;6.78;2.30;;;;;;;14.36;76.66;100924.13;5066089;28;20383;-72
2021/05/27 07:42:57;;;;;;;4.25;1.85;;;;;;;14.46;76.51;100915.56;5012935;28;20037;-73
2021/05/27 07:45:23;;;;;;;5.72;2.20;;;;;;;14.58;76.15;100912.28;5053188;28;20025;-73
2021/05/27 07:47:48;;;;;;;5.90;2.17;;;;;;;14.71;76.02;100914.22;5065225;28;20031;-73
2021/05/27 07:50:14;;;;;;;5.38;2.10;;;;;;;14.86;76.14;100918.66;5009727;28;20028;-72
2021/05/27 07:52:40;;;;;;;5.53;2.25;;;;;;;14.98;75.37;100916.97;5079135;28;20282;-72
2021/05/27 07:55:06;;;;;;;7.20;2.20;;;;;;;15.15;75.49;100923.88;5057335;28;20016;-73
2021/05/27 07:57:31;;;;;;;4.82;1.52;;;;;;;15.31;74.66;100916.78;5010868;28;20116;-72
2021/05/27 07:59:57;;;;;;;5.03;1.73;;;;;;;15.47;74.26;100920.03;5050048;28;20062;-72
2021/05/27 08:02:22;;;;;;;4.32;1.50;;;;;;;15.64;73.78;100922.97;5017122;28;20031;-72
2021/05/27 08:04:48;;;;;;;4.35;1.20;;;;;;;15.81;73.26;100919.50;5029545;28;20126;-72
2021/05/27 08:07:14;;;;;;;4.57;1.45;;;;;;;15.99;72.81;100926.03;5034104;28;20024;-72
2021/05/27 08:09:39;;;;;;;4.78;1.40;;;;;;;16.15;72.33;100932.03;5022485;28;20029;-73
2021/05/27 08:12:05;;;;;;;2.17;1.05;;;;;;;16.30;71.53;100933.63;5055525;28;20045;-73
2021/05/27 08:14:31;;;;;;;2.95;1.17;;;;;;;16.44;71.07;100931.53;5036903;28;20045;-72
2021/05/27 08:16:57;;;;;;;2.17;0.93;;;;;;;16.56;70.65;100927.28;5006883;28;20091;-73
2021/05/27 08:19:22;;;;;;;3.88;1.25;;;;;;;16.66;70.02;100932.59;5039258;28;20024;-73
2021/05/27 08:21:48;;;;;;;2.33;1.23;;;;;;;16.77;68.50;100931.19;5027334;28;20388;-72
2021/05/27 08:24:13;;;;;;;4.30;1.40;;;;;;;16.83;67.41;100929.06;5049624;28;20025;-73
2021/05/27 08:26:39;;;;;;;3.88;1.95;;;;;;;16.92;67.58;100935.50;5049592;28;20087;-70
2021/05/27 08:29:04;;;;;;;7.65;4.68;;;;;;;17.00;67.84;100928.28;5039426;28;20512;-70
2021/05/27 08:31:33;;;;;;;4.10;2.08;;;;;;;17.08;67.72;100936.72;5033217;28;20551;-75
2021/05/27 08:33:58;;;;;;;4.05;1.60;;;;;;;17.18;67.54;100932.75;5047249;28;20107;-75
2021/05/27 08:36:24;;;;;;;3.83;1.30;;;;;;;17.27;67.18;100932.75;5055460;28;20025;-75
2021/05/27 08:38:50;;;;;;;4.47;1.38;;;;;;;17.30;66.41;100927.31;5060310;28;20024;-76
2021/05/27 08:41:18;;;;;;;3.28;1.08;;;;;;;17.37;65.82;100938.03;5025595;28;20025;-75
2021/05/27 08:43:46;;;;;;;6.88;1.80;;;;;;;17.46;65.20;100933.25;5058249;28;20036;-75
2021/05/27 08:46:11;;;;;;;5.32;1.27;;;;;;;17.52;64.82;100934.72;5056535;28;20036;-75
2021/05/27 08:48:37;;;;;;;4.70;1.30;;;;;;;17.60;64.45;100936.72;5039835;28;20037;-76
2021/05/27 08:51:03;;;;;;;4.72;1.40;;;;;;;17.61;63.51;100937.56;5061290;28;20043;-75
2021/05/27 08:53:29;;;;;;;5.38;1.60;;;;;;;17.71;63.51;100933.56;5080585;28;20044;-75
2021/05/27 08:55:54;;;;;;;3.47;1.42;;;;;;;17.83;64.00;100943.03;5061182;28;20025;-75
2021/05/27 08:58:21;;;;;;;4.43;1.63;;;;;;;17.90;64.14;100941.69;5061201;28;20484;-75
2021/05/27 09:00:47;;;;;;;1.92;1.25;;;;;;;18.00;63.87;100939.34;5055587;28;20090;-75
2021/05/27 09:03:18;;;;;;;5.47;1.73;;;;;;;18.11;63.64;100944.59;5046063;28;20115;-75
2021/05/27 09:05:44;;;;;;;4.72;1.88;;;;;;;18.19;63.08;100930.53;5061522;28;20028;-75
2021/05/27 09:08:22;;;;;;;5.85;2.10;;;;;;;18.27;63.26;100938.09;5053563;28;20033;-75
2021/05/27 09:10:48;;;;;;;5.00;1.65;;;;;;;18.34;62.70;100940.41;5049062;28;20032;-74
2021/05/27 09:13:18;;;;;;;4.72;1.50;;;;;;;18.43;61.98;100941.19;5087556;28;20025;-76
2021/05/27 09:15:44;;;;;;;5.03;1.60;;;;;;;18.58;61.71;100938.97;5061841;28;20108;-75
2021/05/27 09:18:10;;;;;;;3.40;1.55;;;;;;;18.67;62.00;100937.78;5060027;28;20044;-75
2021/05/27 09:20:36;;;;;;;3.70;1.33;;;;;;;18.79;62.18;100941.91;5079596;28;20028;-75
2021/05/27 09:23:15;;;;;;;3.60;1.40;;;;;;;18.76;61.25;100937.78;5056233;28;20045;-76
2021/05/27 09:25:42;;;;;;;5.82;1.48;;;;;;;18.84;60.48;100955.78;5092581;28;20060;-75
2021/05/27 09:28:09;;;;;;;2.63;1.30;;;;;;;18.89;59.77;100947.97;5060474;28;20029;-75
2021/05/27 09:30:45;;;;;;;3.88;1.35;;;;;;;19.10;59.76;100938.72;5064103;28;20083;-75
2021/05/27 09:33:11;;;;;;;4.38;1.35;;;;;;;19.23;60.29;100946.09;5054568;28;20043;-75
2021/05/27 09:35:37;;;;;;;8.68;1.52;;;;;;;19.33;59.53;100948.47;5027558;28;20033;-76
2021/05/27 09:38:03;;;;;;;4.50;1.55;;;;;;;19.40;59.51;100945.94;5028735;28;20040;-75
2021/05/27 09:40:36;;;;;;;4.13;1.23;;;;;;;19.50;59.46;100947.53;5042845;28;20029;-74
2021/05/27 09:43:06;;;;;;;4.03;1.58;;;;;;;19.57;59.88;100949.81;5085052;28;20477;-76
2021/05/27 09:45:33;;;;;;;5.70;1.80;;;;;;;19.58;59.00;100955.06;5063390;28;20033;-75
2021/05/27 09:47:58;;;;;;;3.75;1.30;;;;;;;19.75;58.84;100953.31;5052462;28;20024;-75
2021/05/27 09:50:33;;;;;;;2.88;1.20;;;;;;;19.79;58.95;100962.72;5063998;28;20491;-75
2021/05/27 09:53:21;;;;;;;3.80;1.10;;;;;;;19.85;57.51;100956.53;5061668;28;20032;-75
2021/05/27 09:55:47;;;;;;;3.53;1.13;;;;;;;19.99;58.53;100967.50;5047969;28;20100;-75
2021/05/27 09:58:14;;;;;;;8.05;1.02;;;;;;;20.06;57.70;100966.97;5055822;28;20032;-75
2021/05/27 10:00:40;;;;;;;3.42;1.20;;;;;;;20.18;58.03;100969.81;5055958;28;20103;-75
2021/05/27 10:03:33;;;;;;;4.03;1.20;;;;;;;20.28;56.77;100968.53;5056510;28;20042;-74
2021/05/27 10:06:10;;;;;;;2.03;1.08;;;;;;;20.39;57.01;100971.72;5049621;28;20132;-75
2021/05/27 10:08:51;;;;;;;2.60;0.80;;;;;;;20.51;56.86;100972.56;5062477;28;20028;-75
2021/05/27 10:11:17;;;;;;;3.22;1.05;;;;;;;20.57;56.18;100970.38;5071772;28;20072;-76
2021/05/27 10:13:43;;;;;;;2.65;0.90;;;;;;;20.61;55.82;100965.66;5030439;28;20541;-75
2021/05/27 10:16:13;;;;;;;2.35;0.90;;;;;;;20.69;55.68;100976.03;5028713;28;20044;-75
2021/05/27 10:18:39;;;;;;;1.20;0.52;;;;;;;20.74;54.07;100974.97;5021756;28;20052;-75
2021/05/27 10:21:05;;;;;;;2.55;1.00;;;;;;;20.81;54.59;100969.59;5012249;28;20112;-76
2021/05/27 10:23:30;;;;;;;4.28;0.90;;;;;;;20.88;55.05;100974.63;5032416;28;20029;-75
2021/05/27 10:25:56;;;;;;;3.20;1.20;;;;;;;20.91;55.08;100968.28;5042697;28;20091;-75
2021/05/27 10:28:23;;;;;;;2.92;0.90;;;;;;;20.86;54.19;100966.50;5043140;28;20364;-75
2021/05/27 10:30:49;;;;;;;3.97;1.00;;;;;;;21.00;54.63;100966.16;5048991;28;20061;-75
2021/05/27 10:33:18;;;;;;;3.85;1.00;;;;;;;21.08;54.73;100965.19;5006663;28;20029;-75
2021/05/27 10:35:54;;;;;;;2.45;0.80;;;;;;;21.16;54.58;100967.06;5015610;28;20052;-75
2021/05/27 10:38:39;;;;;;;2.85;0.70;;;;;;;21.24;55.87;100967.31;4998263;28;20029;-73
2021/05/27 10:41:06;;;;;;;3.17;1.80;;;;;;;20.90;56.03;100969.47;5026171;28;20030;-72
2021/05/27 10:43:32;;;;;;;3.42;1.45;;;;;;;20.77;55.73;100962.16;5047171;28;20044;-74
2021/05/27 10:46:04;;;;;;;4.70;1.13;;;;;;;20.90;54.50;100958.19;5022525;28;20081;-75
2021/05/27 10:48:41;;;;;;;1.63;0.80;;;;;;;21.01;52.81;100965.00;5031384;28;20040;-74
2021/05/27 10:51:29;;;;;;;2.28;0.80;;;;;;;21.15;52.53;100961.81;5045958;28;20117;-75
2021/05/27 10:53:58;;;;;;;4.53;0.82;;;;;;;21.36;51.80;100961.63;4991964;28;20057;-74
2021/05/27 10:56:44;;;;;;;2.15;0.60;;;;;;;21.55;53.10;100952.56;4989268;28;20032;-75
2021/05/27 10:59:14;;;;;;;4.22;0.73;;;;;;;21.49;52.97;100954.00;5014829;28;20064;-74
2021/05/27 11:01:42;;;;;;;2.63;0.80;;;;;;;21.55;52.27;100956.19;5008393;28;20034;-75
2021/05/27 11:04:28;;;;;;;3.70;0.85;;;;;;;21.64;52.14;100951.22;5048105;28;20029;-74
2021/05/27 11:07:13;;;;;;;2.45;0.80;;;;;;;21.92;51.54;100950.38;5041724;28;20038;-75
2021/05/27 11:09:39;;;;;;;2.30;0.73;;;;;;;22.03;52.44;100953.53;5004829;28;20035;-74
2021/05/27 11:12:09;;;;;;;3.40;0.90;;;;;;;22.19;52.62;100960.06;4999635;28;20120;-74
2021/05/27 11:14:36;;;;;;;1.67;0.70;;;;;;;22.38;52.97;100955.72;5018888;28;20025;-74
2021/05/27 11:17:06;;;;;;;2.13;0.85;;;;;;;22.58;54.13;100962.31;5000035;28;20032;-74
2021/05/27 11:19:47;;;;;;;1.63;0.70;;;;;;;22.73;53.21;100956.66;5051199;28;20493;-74
2021/05/27 11:25:08;;;;;;;1.92;0.70;;;;;;;22.94;50.02;100950.69;5054514;28;20026;-74
2021/05/27 11:27:43;;;;;;;2.58;0.70;;;;;;;22.93;50.23;100948.22;5024573;28;20029;-75
2021/05/27 11:30:39;;;;;;;1.45;0.60;;;;;;;23.00;49.77;100950.44;5052467;28;20032;-75
2021/05/27 11:33:14;;;;;;;2.28;0.60;;;;;;;23.04;49.24;100957.00;5055728;28;20028;-74
2021/05/27 11:35:40;;;;;;;1.83;0.57;;;;;;;23.10;49.72;100955.53;5023564;28;20464;-74
2021/05/27 11:38:06;;;;;;;2.40;0.45;;;;;;;23.17;49.17;100953.66;5065143;28;20029;-75
2021/05/27 11:40:33;;;;;;;4.88;0.77;;;;;;;23.11;49.87;100951.50;5041601;28;20070;-75
2021/05/27 11:42:59;;;;;;;1.40;0.68;;;;;;;22.89;49.85;100948.13;5006783;28;20508;-74
2021/05/27 11:45:25;;;;;;;3.03;0.40;;;;;;;23.01;49.64;100954.91;5022082;28;20045;-74
2021/05/27 11:48:34;;;;;;;1.35;0.40;;;;;;;23.02;49.07;100951.72;5008517;28;20032;-74
2021/05/27 11:51:12;;;;;;;3.53;0.77;;;;;;;23.17;48.93;100941.53;5038445;28;20037;-75
2021/05/27 11:53:56;;;;;;;2.25;0.47;;;;;;;23.33;49.34;100947.97;5037390;28;20064;-74
2021/05/27 11:56:43;;;;;;;1.83;0.60;;;;;;;23.47;49.60;100955.16;5032271;28;20027;-74
2021/05/27 11:59:29;;;;;;;2.55;0.50;;;;;;;23.58;49.73;100934.34;5005978;28;20040;-75
2021/05/27 12:02:00;;;;;;;0.88;0.50;;;;;;;23.56;48.08;100947.25;5019414;28;20041;-75
2021/05/27 12:04:26;;;;;;;1.38;0.30;;;;;;;23.46;47.69;100947.81;5044127;28;20033;-74
2021/05/27 12:07:02;;;;;;;1.55;0.30;;;;;;;23.47;46.83;100949.47;5036409;28;20029;-75
2021/05/27 12:09:31;;;;;;;0.90;0.40;;;;;;;23.50;46.35;100951.56;5035235;28;20075;-75
2021/05/27 12:11:59;;;;;;;1.95;0.30;;;;;;;23.53;46.61;100948.00;5001938;28;20103;-74